Airfield :
LOGIN :

Register | Disclaimer

   EN    FR    IT 

 










Legend :    VFR   Marginal VFR   IFR   Intensive IFR   Very Intensive IFR
Visi :
Ceiling :
>= 8 km
>= 3000ft
5 to 8 km
1000 to 3000 ft
1500m to 5 km
500 to 1000 ft
800 to 1500m
200 to 500 ft
< 800m
< 200 ft
Symbols :   Thunderstorms  Fog  Heavy snow  Heavy precipitations  Wind > 20 kt
SIGMETs :     Misc.  Thunderstorms  Icing  Turbulence  Mountain Waves  Volcanic Ashes







- Airport Elevation : 681 ft
- IATA code : LBA
- Download approach charts


EGNM - Leeds Bradford

CURRENT METAR :
  • 231720Z 24018KT 210V280 9999 FEW012 SCT030 10/07 Q1005

EXPIRED METARs :
  • 231650Z 24016G26KT 210V270 9999 FEW012 SCT030 11/07 Q1004
  • 231620Z 24014KT 210V280 9999 FEW012 SCT020 11/08 Q1004
  • 231550Z 23014G24KT 200V270 9999 FEW009 SCT013 11/09 Q1004
  • 231520Z 23013G24KT 190V260 9999 FEW009 SCT013 11/09 Q1004
  • 231450Z 23013G23KT 150V270 9999 -RA BKN012 11/09 Q1004

TAF TAF EGNM
Valid from the 23 at 18:00 until the 24 at 18:00 UTC


231658Z 2318/2418 22012KT 9999 SCT018
TEMPO 2318/2324 22022G33KT
BECMG 2400/2403 22020G32KT
TEMPO 2402/2409 23032G45KT
BECMG 2404/2407 7000 RA BKN014
TEMPO 2406/2409 3000 +RA RADZ BKN008
BECMG 2407/2410 22014KT 9999 NSW SCT020
TEMPO 2410/2418 22018G30KT
ATIS : +44 113 250 9696 (x2489)
No reported NOTAMs for that airfield.



MET'MAP, your aeronautical weather chart ! - Copyright ORBIFLY December 2007 - Disclaimer

ORBIFLY MET'MAP TEAM :

Programming & Development : Alexandra Zaïnal
Concept & Development : Baudouin d'Aumeries
Co-Development & Prog : Marc-Olivier Méhu
Technical & hardware support : Manuel Goepfert

Contact : metmap@orbifly.com




SOURCES & CREDITS :

   NOAA